sensor_id;sensor_type;location;lat;lon;timestamp;P1;durP1;ratioP1;P2;durP2;ratioP2
1360;SDS011;674;45.552;-122.600;2023-07-22T00:00:53;2.60;;;1.83;;
1360;SDS011;674;45.552;-122.600;2023-07-22T00:03:21;3.50;;;1.80;;
1360;SDS011;674;45.552;-122.600;2023-07-22T00:06:01;3.43;;;2.07;;
1360;SDS011;674;45.552;-122.600;2023-07-22T00:08:34;1.83;;;1.70;;
1360;SDS011;674;45.552;-122.600;2023-07-22T00:11:06;2.83;;;2.00;;
1360;SDS011;674;45.552;-122.600;2023-07-22T00:13:38;2.47;;;2.20;;
1360;SDS011;674;45.552;-122.600;2023-07-22T00:16:07;2.10;;;1.90;;
1360;SDS011;674;45.552;-122.600;2023-07-22T00:18:36;2.90;;;1.70;;
1360;SDS011;674;45.552;-122.600;2023-07-22T00:21:05;2.07;;;1.87;;
1360;SDS011;674;45.552;-122.600;2023-07-22T00:23:35;1.97;;;1.77;;
1360;SDS011;674;45.552;-122.600;2023-07-22T00:26:04;2.10;;;1.60;;
1360;SDS011;674;45.552;-122.600;2023-07-22T00:28:32;1.77;;;1.67;;
1360;SDS011;674;45.552;-122.600;2023-07-22T00:31:02;2.23;;;1.87;;
1360;SDS011;674;45.552;-122.600;2023-07-22T00:33:31;1.90;;;1.70;;
1360;SDS011;674;45.552;-122.600;2023-07-22T00:36:05;1.80;;;1.70;;
1360;SDS011;674;45.552;-122.600;2023-07-22T00:38:34;1.60;;;1.50;;
1360;SDS011;674;45.552;-122.600;2023-07-22T00:41:02;2.67;;;2.10;;
1360;SDS011;674;45.552;-122.600;2023-07-22T00:43:35;2.13;;;1.93;;
1360;SDS011;674;45.552;-122.600;2023-07-22T00:46:03;2.27;;;1.43;;
1360;SDS011;674;45.552;-122.600;2023-07-22T00:48:32;1.53;;;1.43;;
1360;SDS011;674;45.552;-122.600;2023-07-22T00:51:01;1.97;;;1.77;;
1360;SDS011;674;45.552;-122.600;2023-07-22T00:53:29;1.87;;;1.60;;
1360;SDS011;674;45.552;-122.600;2023-07-22T00:55:58;2.33;;;1.40;;
1360;SDS011;674;45.552;-122.600;2023-07-22T00:58:26;1.90;;;1.80;;
1360;SDS011;674;45.552;-122.600;2023-07-22T01:00:55;2.20;;;1.83;;
1360;SDS011;674;45.552;-122.600;2023-07-22T01:03:24;1.80;;;1.60;;
1360;SDS011;674;45.552;-122.600;2023-07-22T01:05:52;1.60;;;1.50;;
1360;SDS011;674;45.552;-122.600;2023-07-22T01:08:22;1.50;;;1.40;;
1360;SDS011;674;45.552;-122.600;2023-07-22T01:10:50;2.10;;;1.50;;
1360;SDS011;674;45.552;-122.600;2023-07-22T01:13:19;2.13;;;1.40;;
1360;SDS011;674;45.552;-122.600;2023-07-22T01:15:47;2.13;;;1.30;;
1360;SDS011;674;45.552;-122.600;2023-07-22T01:18:16;3.10;;;1.50;;
1360;SDS011;674;45.552;-122.600;2023-07-22T01:20:45;1.60;;;1.40;;
1360;SDS011;674;45.552;-122.600;2023-07-22T01:23:14;1.80;;;1.23;;
1360;SDS011;674;45.552;-122.600;2023-07-22T01:25:43;2.10;;;1.53;;
1360;SDS011;674;45.552;-122.600;2023-07-22T01:28:11;1.50;;;1.40;;
1360;SDS011;674;45.552;-122.600;2023-07-22T01:30:40;2.00;;;1.40;;
1360;SDS011;674;45.552;-122.600;2023-07-22T01:33:08;2.27;;;1.43;;
1360;SDS011;674;45.552;-122.600;2023-07-22T01:35:37;1.37;;;1.07;;
1360;SDS011;674;45.552;-122.600;2023-07-22T01:38:05;1.47;;;1.20;;
1360;SDS011;674;45.552;-122.600;2023-07-22T01:40:35;1.97;;;1.40;;
1360;SDS011;674;45.552;-122.600;2023-07-22T01:43:04;1.83;;;1.37;;
1360;SDS011;674;45.552;-122.600;2023-07-22T01:45:32;2.23;;;1.60;;
1360;SDS011;674;45.552;-122.600;2023-07-22T01:48:01;2.37;;;2.03;;
1360;SDS011;674;45.552;-122.600;2023-07-22T01:50:29;1.73;;;1.50;;
1360;SDS011;674;45.552;-122.600;2023-07-22T01:52:58;1.53;;;1.43;;
1360;SDS011;674;45.552;-122.600;2023-07-22T01:55:26;2.13;;;1.93;;
1360;SDS011;674;45.552;-122.600;2023-07-22T01:57:55;4.27;;;1.80;;
1360;SDS011;674;45.552;-122.600;2023-07-22T02:00:23;1.50;;;1.40;;
1360;SDS011;674;45.552;-122.600;2023-07-22T02:02:53;1.60;;;1.50;;
1360;SDS011;674;45.552;-122.600;2023-07-22T02:05:21;1.60;;;1.30;;
1360;SDS011;674;45.552;-122.600;2023-07-22T02:07:51;3.60;;;1.60;;
1360;SDS011;674;45.552;-122.600;2023-07-22T02:10:19;3.00;;;2.80;;
1360;SDS011;674;45.552;-122.600;2023-07-22T02:12:48;4.93;;;2.03;;
1360;SDS011;674;45.552;-122.600;2023-07-22T02:15:16;2.67;;;2.47;;
1360;SDS011;674;45.552;-122.600;2023-07-22T02:17:46;1.63;;;1.53;;
1360;SDS011;674;45.552;-122.600;2023-07-22T02:20:15;2.73;;;1.50;;
1360;SDS011;674;45.552;-122.600;2023-07-22T02:22:44;2.27;;;1.70;;
1360;SDS011;674;45.552;-122.600;2023-07-22T02:25:13;3.20;;;1.90;;
1360;SDS011;674;45.552;-122.600;2023-07-22T02:27:42;1.50;;;1.40;;
1360;SDS011;674;45.552;-122.600;2023-07-22T02:30:11;1.90;;;1.57;;
1360;SDS011;674;45.552;-122.600;2023-07-22T02:32:39;2.67;;;1.63;;
1360;SDS011;674;45.552;-122.600;2023-07-22T02:35:09;2.43;;;1.70;;
1360;SDS011;674;45.552;-122.600;2023-07-22T02:37:38;4.33;;;1.67;;
1360;SDS011;674;45.552;-122.600;2023-07-22T02:40:07;2.03;;;1.43;;
1360;SDS011;674;45.552;-122.600;2023-07-22T02:42:38;3.53;;;1.80;;
1360;SDS011;674;45.552;-122.600;2023-07-22T02:45:08;2.67;;;1.70;;
1360;SDS011;674;45.552;-122.600;2023-07-22T02:47:40;2.40;;;1.73;;
1360;SDS011;674;45.552;-122.600;2023-07-22T02:50:19;2.00;;;1.50;;
1360;SDS011;674;45.552;-122.600;2023-07-22T02:52:48;2.03;;;1.63;;
1360;SDS011;674;45.552;-122.600;2023-07-22T02:55:17;3.30;;;1.90;;
1360;SDS011;674;45.552;-122.600;2023-07-22T02:57:46;3.50;;;1.73;;
1360;SDS011;674;45.552;-122.600;2023-07-22T03:00:16;2.80;;;1.70;;
1360;SDS011;674;45.552;-122.600;2023-07-22T03:02:55;2.67;;;1.50;;
1360;SDS011;674;45.552;-122.600;2023-07-22T03:05:28;1.80;;;1.50;;
1360;SDS011;674;45.552;-122.600;2023-07-22T03:07:58;2.17;;;1.60;;
1360;SDS011;674;45.552;-122.600;2023-07-22T03:10:27;2.30;;;1.90;;
1360;SDS011;674;45.552;-122.600;2023-07-22T03:12:56;2.70;;;2.13;;
1360;SDS011;674;45.552;-122.600;2023-07-22T03:15:26;1.57;;;1.40;;
1360;SDS011;674;45.552;-122.600;2023-07-22T03:17:55;2.10;;;1.70;;
1360;SDS011;674;45.552;-122.600;2023-07-22T03:20:26;3.10;;;1.70;;
1360;SDS011;674;45.552;-122.600;2023-07-22T03:22:55;3.27;;;2.00;;
1360;SDS011;674;45.552;-122.600;2023-07-22T03:25:23;3.37;;;2.00;;
1360;SDS011;674;45.552;-122.600;2023-07-22T03:27:52;2.23;;;1.60;;
1360;SDS011;674;45.552;-122.600;2023-07-22T03:30:21;1.60;;;1.30;;
1360;SDS011;674;45.552;-122.600;2023-07-22T03:32:50;1.60;;;1.50;;
1360;SDS011;674;45.552;-122.600;2023-07-22T03:35:19;2.27;;;1.60;;
1360;SDS011;674;45.552;-122.600;2023-07-22T03:37:47;2.97;;;1.70;;
1360;SDS011;674;45.552;-122.600;2023-07-22T03:40:16;2.50;;;1.80;;
1360;SDS011;674;45.552;-122.600;2023-07-22T03:42:48;1.87;;;1.60;;
1360;SDS011;674;45.552;-122.600;2023-07-22T03:45:18;2.73;;;2.20;;
1360;SDS011;674;45.552;-122.600;2023-07-22T03:47:50;3.03;;;1.50;;
1360;SDS011;674;45.552;-122.600;2023-07-22T03:50:20;3.60;;;1.50;;
1360;SDS011;674;45.552;-122.600;2023-07-22T03:52:49;2.50;;;2.23;;
1360;SDS011;674;45.552;-122.600;2023-07-22T03:55:17;2.73;;;1.87;;
1360;SDS011;674;45.552;-122.600;2023-07-22T03:57:49;2.77;;;1.90;;
1360;SDS011;674;45.552;-122.600;2023-07-22T04:00:18;2.10;;;1.90;;
1360;SDS011;674;45.552;-122.600;2023-07-22T04:02:47;1.70;;;1.60;;
1360;SDS011;674;45.552;-122.600;2023-07-22T04:05:16;2.00;;;1.50;;
1360;SDS011;674;45.552;-122.600;2023-07-22T04:07:45;2.33;;;1.87;;
1360;SDS011;674;45.552;-122.600;2023-07-22T04:10:13;2.53;;;1.90;;
1360;SDS011;674;45.552;-122.600;2023-07-22T04:12:42;1.67;;;1.50;;
1360;SDS011;674;45.552;-122.600;2023-07-22T04:15:10;1.70;;;1.50;;
1360;SDS011;674;45.552;-122.600;2023-07-22T04:17:39;2.40;;;1.60;;
1360;SDS011;674;45.552;-122.600;2023-07-22T04:20:08;1.97;;;1.30;;
1360;SDS011;674;45.552;-122.600;2023-07-22T04:22:37;1.83;;;1.50;;
1360;SDS011;674;45.552;-122.600;2023-07-22T04:25:06;4.40;;;1.63;;
1360;SDS011;674;45.552;-122.600;2023-07-22T04:27:35;2.40;;;1.87;;
1360;SDS011;674;45.552;-122.600;2023-07-22T04:30:04;2.00;;;1.30;;
1360;SDS011;674;45.552;-122.600;2023-07-22T04:32:33;1.93;;;1.60;;
1360;SDS011;674;45.552;-122.600;2023-07-22T04:35:02;1.70;;;1.60;;
1360;SDS011;674;45.552;-122.600;2023-07-22T04:37:32;1.80;;;1.10;;
1360;SDS011;674;45.552;-122.600;2023-07-22T04:40:01;2.20;;;1.60;;
1360;SDS011;674;45.552;-122.600;2023-07-22T04:42:33;2.17;;;1.60;;
1360;SDS011;674;45.552;-122.600;2023-07-22T04:45:02;2.07;;;1.40;;
1360;SDS011;674;45.552;-122.600;2023-07-22T04:47:31;1.80;;;1.50;;
1360;SDS011;674;45.552;-122.600;2023-07-22T04:50:00;1.40;;;1.20;;
1360;SDS011;674;45.552;-122.600;2023-07-22T04:52:28;1.53;;;1.30;;
1360;SDS011;674;45.552;-122.600;2023-07-22T04:54:57;1.70;;;1.30;;
1360;SDS011;674;45.552;-122.600;2023-07-22T04:57:25;1.40;;;1.30;;
1360;SDS011;674;45.552;-122.600;2023-07-22T04:59:54;1.43;;;1.17;;
1360;SDS011;674;45.552;-122.600;2023-07-22T05:02:22;2.53;;;1.50;;
1360;SDS011;674;45.552;-122.600;2023-07-22T05:04:51;1.50;;;1.27;;
1360;SDS011;674;45.552;-122.600;2023-07-22T05:07:19;2.10;;;1.50;;
1360;SDS011;674;45.552;-122.600;2023-07-22T05:09:49;1.67;;;1.20;;
1360;SDS011;674;45.552;-122.600;2023-07-22T05:12:19;1.10;;;1.00;;
1360;SDS011;674;45.552;-122.600;2023-07-22T05:14:48;2.50;;;1.10;;
1360;SDS011;674;45.552;-122.600;2023-07-22T05:17:16;1.50;;;1.10;;
1360;SDS011;674;45.552;-122.600;2023-07-22T05:19:45;2.57;;;1.30;;
1360;SDS011;674;45.552;-122.600;2023-07-22T05:22:16;2.43;;;1.17;;
1360;SDS011;674;45.552;-122.600;2023-07-22T05:24:44;1.10;;;0.80;;
1360;SDS011;674;45.552;-122.600;2023-07-22T05:27:13;1.80;;;1.17;;
1360;SDS011;674;45.552;-122.600;2023-07-22T05:29:42;1.90;;;1.27;;
1360;SDS011;674;45.552;-122.600;2023-07-22T05:32:11;3.37;;;1.50;;
1360;SDS011;674;45.552;-122.600;2023-07-22T05:34:58;2.07;;;1.30;;
1360;SDS011;674;45.552;-122.600;2023-07-22T05:37:28;2.17;;;1.10;;
1360;SDS011;674;45.552;-122.600;2023-07-22T05:39:57;3.27;;;1.20;;
1360;SDS011;674;45.552;-122.600;2023-07-22T05:42:26;1.50;;;0.97;;
1360;SDS011;674;45.552;-122.600;2023-07-22T05:44:57;2.97;;;1.77;;
1360;SDS011;674;45.552;-122.600;2023-07-22T05:47:26;1.60;;;1.20;;
1360;SDS011;674;45.552;-122.600;2023-07-22T05:49:55;2.43;;;1.30;;
1360;SDS011;674;45.552;-122.600;2023-07-22T05:52:23;1.70;;;1.60;;
1360;SDS011;674;45.552;-122.600;2023-07-22T05:54:52;1.83;;;1.10;;
1360;SDS011;674;45.552;-122.600;2023-07-22T05:57:20;1.43;;;1.00;;
1360;SDS011;674;45.552;-122.600;2023-07-22T05:59:49;2.23;;;1.00;;
1360;SDS011;674;45.552;-122.600;2023-07-22T06:02:33;1.60;;;1.00;;
1360;SDS011;674;45.552;-122.600;2023-07-22T06:05:02;2.20;;;1.20;;
1360;SDS011;674;45.552;-122.600;2023-07-22T06:07:31;1.47;;;0.80;;
1360;SDS011;674;45.552;-122.600;2023-07-22T06:09:59;1.80;;;1.10;;
1360;SDS011;674;45.552;-122.600;2023-07-22T06:12:28;1.53;;;0.70;;
1360;SDS011;674;45.552;-122.600;2023-07-22T06:14:56;1.27;;;0.80;;
1360;SDS011;674;45.552;-122.600;2023-07-22T06:17:25;1.20;;;0.70;;
1360;SDS011;674;45.552;-122.600;2023-07-22T06:19:53;1.43;;;0.90;;
1360;SDS011;674;45.552;-122.600;2023-07-22T06:22:22;4.80;;;0.93;;
1360;SDS011;674;45.552;-122.600;2023-07-22T06:24:50;1.20;;;0.90;;
1360;SDS011;674;45.552;-122.600;2023-07-22T06:27:19;1.77;;;1.27;;
1360;SDS011;674;45.552;-122.600;2023-07-22T06:29:48;1.20;;;0.90;;
1360;SDS011;674;45.552;-122.600;2023-07-22T06:32:16;1.53;;;0.93;;
1360;SDS011;674;45.552;-122.600;2023-07-22T06:34:48;1.10;;;0.90;;
1360;SDS011;674;45.552;-122.600;2023-07-22T06:37:16;1.20;;;0.80;;
1360;SDS011;674;45.552;-122.600;2023-07-22T06:39:45;1.30;;;0.90;;
1360;SDS011;674;45.552;-122.600;2023-07-22T06:42:13;1.70;;;0.93;;
1360;SDS011;674;45.552;-122.600;2023-07-22T06:44:42;1.83;;;0.90;;
1360;SDS011;674;45.552;-122.600;2023-07-22T06:47:11;1.20;;;0.70;;
1360;SDS011;674;45.552;-122.600;2023-07-22T06:49:40;1.70;;;1.10;;
1360;SDS011;674;45.552;-122.600;2023-07-22T06:52:13;1.50;;;1.00;;
1360;SDS011;674;45.552;-122.600;2023-07-22T06:54:41;1.30;;;0.80;;
1360;SDS011;674;45.552;-122.600;2023-07-22T06:57:10;1.13;;;0.93;;
1360;SDS011;674;45.552;-122.600;2023-07-22T06:59:38;1.50;;;0.93;;
1360;SDS011;674;45.552;-122.600;2023-07-22T07:02:07;1.60;;;1.07;;
1360;SDS011;674;45.552;-122.600;2023-07-22T07:04:36;2.83;;;0.80;;
1360;SDS011;674;45.552;-122.600;2023-07-22T07:07:05;1.33;;;0.80;;
1360;SDS011;674;45.552;-122.600;2023-07-22T07:09:34;1.97;;;0.87;;
1360;SDS011;674;45.552;-122.600;2023-07-22T07:12:03;0.93;;;0.53;;
1360;SDS011;674;45.552;-122.600;2023-07-22T07:14:35;1.07;;;0.80;;
1360;SDS011;674;45.552;-122.600;2023-07-22T07:17:04;1.20;;;0.70;;
1360;SDS011;674;45.552;-122.600;2023-07-22T07:19:32;2.40;;;0.80;;
1360;SDS011;674;45.552;-122.600;2023-07-22T07:22:01;1.27;;;0.90;;
1360;SDS011;674;45.552;-122.600;2023-07-22T07:24:31;1.10;;;0.83;;
1360;SDS011;674;45.552;-122.600;2023-07-22T07:27:00;1.00;;;0.70;;
1360;SDS011;674;45.552;-122.600;2023-07-22T07:29:28;1.10;;;0.83;;
1360;SDS011;674;45.552;-122.600;2023-07-22T07:31:59;1.60;;;0.80;;
1360;SDS011;674;45.552;-122.600;2023-07-22T07:34:28;1.30;;;0.60;;
1360;SDS011;674;45.552;-122.600;2023-07-22T07:36:56;1.40;;;1.00;;
1360;SDS011;674;45.552;-122.600;2023-07-22T07:39:25;1.63;;;0.70;;
1360;SDS011;674;45.552;-122.600;2023-07-22T07:41:53;0.90;;;0.60;;
1360;SDS011;674;45.552;-122.600;2023-07-22T07:44:22;1.50;;;0.73;;
1360;SDS011;674;45.552;-122.600;2023-07-22T07:46:50;1.10;;;0.80;;
1360;SDS011;674;45.552;-122.600;2023-07-22T07:49:19;1.27;;;0.80;;
1360;SDS011;674;45.552;-122.600;2023-07-22T07:51:48;1.70;;;1.00;;
1360;SDS011;674;45.552;-122.600;2023-07-22T07:54:16;1.00;;;0.80;;
1360;SDS011;674;45.552;-122.600;2023-07-22T07:56:45;2.10;;;0.87;;
1360;SDS011;674;45.552;-122.600;2023-07-22T07:59:13;1.17;;;0.70;;
1360;SDS011;674;45.552;-122.600;2023-07-22T08:01:42;0.90;;;0.70;;
1360;SDS011;674;45.552;-122.600;2023-07-22T08:04:10;1.10;;;0.70;;
1360;SDS011;674;45.552;-122.600;2023-07-22T08:06:40;1.20;;;0.73;;
1360;SDS011;674;45.552;-122.600;2023-07-22T08:09:09;1.47;;;1.00;;
1360;SDS011;674;45.552;-122.600;2023-07-22T08:11:46;1.20;;;0.90;;
1360;SDS011;674;45.552;-122.600;2023-07-22T08:14:14;1.10;;;0.60;;
1360;SDS011;674;45.552;-122.600;2023-07-22T08:16:44;2.00;;;0.80;;
1360;SDS011;674;45.552;-122.600;2023-07-22T08:19:12;1.40;;;0.73;;
1360;SDS011;674;45.552;-122.600;2023-07-22T08:21:41;0.87;;;0.50;;
1360;SDS011;674;45.552;-122.600;2023-07-22T08:24:09;2.07;;;0.90;;
1360;SDS011;674;45.552;-122.600;2023-07-22T08:26:40;1.10;;;0.90;;
1360;SDS011;674;45.552;-122.600;2023-07-22T08:29:09;1.30;;;0.90;;
1360;SDS011;674;45.552;-122.600;2023-07-22T08:31:38;1.30;;;1.00;;
1360;SDS011;674;45.552;-122.600;2023-07-22T08:34:06;1.77;;;0.77;;
1360;SDS011;674;45.552;-122.600;2023-07-22T08:36:35;1.90;;;0.77;;
1360;SDS011;674;45.552;-122.600;2023-07-22T08:39:03;1.07;;;0.80;;
1360;SDS011;674;45.552;-122.600;2023-07-22T08:41:33;1.20;;;0.80;;
1360;SDS011;674;45.552;-122.600;2023-07-22T08:44:03;1.20;;;0.90;;
1360;SDS011;674;45.552;-122.600;2023-07-22T08:46:33;1.30;;;0.80;;
1360;SDS011;674;45.552;-122.600;2023-07-22T08:49:03;1.20;;;0.90;;
1360;SDS011;674;45.552;-122.600;2023-07-22T08:51:35;1.07;;;0.90;;
1360;SDS011;674;45.552;-122.600;2023-07-22T08:54:04;2.50;;;0.80;;
1360;SDS011;674;45.552;-122.600;2023-07-22T08:56:38;1.10;;;0.73;;
1360;SDS011;674;45.552;-122.600;2023-07-22T08:59:07;1.40;;;1.10;;
1360;SDS011;674;45.552;-122.600;2023-07-22T09:01:37;1.10;;;0.80;;
1360;SDS011;674;45.552;-122.600;2023-07-22T09:04:07;1.20;;;0.90;;
1360;SDS011;674;45.552;-122.600;2023-07-22T09:06:37;1.20;;;1.00;;
1360;SDS011;674;45.552;-122.600;2023-07-22T09:09:07;1.30;;;0.80;;
1360;SDS011;674;45.552;-122.600;2023-07-22T09:11:37;1.53;;;0.87;;
1360;SDS011;674;45.552;-122.600;2023-07-22T09:14:06;1.10;;;0.90;;
1360;SDS011;674;45.552;-122.600;2023-07-22T09:16:40;0.90;;;0.70;;
1360;SDS011;674;45.552;-122.600;2023-07-22T09:19:09;1.07;;;0.70;;
1360;SDS011;674;45.552;-122.600;2023-07-22T09:21:38;1.20;;;0.80;;
1360;SDS011;674;45.552;-122.600;2023-07-22T09:24:20;1.73;;;1.10;;
1360;SDS011;674;45.552;-122.600;2023-07-22T09:26:52;1.40;;;0.80;;
1360;SDS011;674;45.552;-122.600;2023-07-22T09:29:37;2.47;;;1.30;;
1360;SDS011;674;45.552;-122.600;2023-07-22T09:32:12;2.37;;;1.07;;
1360;SDS011;674;45.552;-122.600;2023-07-22T09:34:53;1.93;;;1.07;;
1360;SDS011;674;45.552;-122.600;2023-07-22T09:37:23;1.60;;;1.10;;
1360;SDS011;674;45.552;-122.600;2023-07-22T09:40:15;3.07;;;1.20;;
1360;SDS011;674;45.552;-122.600;2023-07-22T09:42:50;2.17;;;1.10;;
1360;SDS011;674;45.552;-122.600;2023-07-22T09:45:23;2.00;;;1.10;;
1360;SDS011;674;45.552;-122.600;2023-07-22T09:47:53;2.00;;;1.00;;
1360;SDS011;674;45.552;-122.600;2023-07-22T09:50:24;1.30;;;0.80;;
1360;SDS011;674;45.552;-122.600;2023-07-22T09:52:55;1.67;;;1.00;;
1360;SDS011;674;45.552;-122.600;2023-07-22T09:55:26;1.90;;;1.07;;
1360;SDS011;674;45.552;-122.600;2023-07-22T09:57:59;1.33;;;1.00;;
1360;SDS011;674;45.552;-122.600;2023-07-22T10:00:33;1.13;;;0.93;;
1360;SDS011;674;45.552;-122.600;2023-07-22T10:03:02;1.33;;;0.93;;
1360;SDS011;674;45.552;-122.600;2023-07-22T10:05:39;2.03;;;1.07;;
1360;SDS011;674;45.552;-122.600;2023-07-22T10:08:09;1.43;;;0.73;;
1360;SDS011;674;45.552;-122.600;2023-07-22T10:10:39;1.63;;;1.13;;
1360;SDS011;674;45.552;-122.600;2023-07-22T10:13:10;1.07;;;0.80;;
1360;SDS011;674;45.552;-122.600;2023-07-22T10:15:39;2.27;;;0.97;;
1360;SDS011;674;45.552;-122.600;2023-07-22T10:18:07;1.50;;;1.00;;
1360;SDS011;674;45.552;-122.600;2023-07-22T10:20:38;1.30;;;0.87;;
1360;SDS011;674;45.552;-122.600;2023-07-22T10:23:07;1.60;;;1.30;;
1360;SDS011;674;45.552;-122.600;2023-07-22T10:25:36;1.43;;;1.00;;
1360;SDS011;674;45.552;-122.600;2023-07-22T10:28:06;1.33;;;0.80;;
1360;SDS011;674;45.552;-122.600;2023-07-22T10:30:35;1.00;;;0.70;;
1360;SDS011;674;45.552;-122.600;2023-07-22T10:33:04;1.70;;;1.00;;
1360;SDS011;674;45.552;-122.600;2023-07-22T10:38:08;2.00;;;1.13;;
1360;SDS011;674;45.552;-122.600;2023-07-22T10:40:51;1.47;;;1.07;;
1360;SDS011;674;45.552;-122.600;2023-07-22T10:43:24;2.43;;;1.20;;
1360;SDS011;674;45.552;-122.600;2023-07-22T10:45:56;1.70;;;0.90;;
1360;SDS011;674;45.552;-122.600;2023-07-22T10:48:27;1.40;;;1.10;;
1360;SDS011;674;45.552;-122.600;2023-07-22T10:51:06;1.43;;;1.10;;
1360;SDS011;674;45.552;-122.600;2023-07-22T10:53:42;1.00;;;0.73;;
1360;SDS011;674;45.552;-122.600;2023-07-22T10:56:16;1.20;;;0.80;;
1360;SDS011;674;45.552;-122.600;2023-07-22T11:01:23;1.00;;;0.77;;
1360;SDS011;674;45.552;-122.600;2023-07-22T11:06:38;1.30;;;1.13;;
1360;SDS011;674;45.552;-122.600;2023-07-22T11:11:57;1.30;;;1.17;;
1360;SDS011;674;45.552;-122.600;2023-07-22T11:14:27;1.23;;;0.83;;
1360;SDS011;674;45.552;-122.600;2023-07-22T11:16:58;1.20;;;0.90;;
1360;SDS011;674;45.552;-122.600;2023-07-22T11:19:36;1.10;;;0.90;;
1360;SDS011;674;45.552;-122.600;2023-07-22T11:22:05;2.73;;;1.30;;
1360;SDS011;674;45.552;-122.600;2023-07-22T11:24:34;1.20;;;0.90;;
1360;SDS011;674;45.552;-122.600;2023-07-22T11:27:07;1.77;;;1.00;;
1360;SDS011;674;45.552;-122.600;2023-07-22T11:29:35;2.13;;;1.20;;
1360;SDS011;674;45.552;-122.600;2023-07-22T11:32:04;2.40;;;1.10;;
1360;SDS011;674;45.552;-122.600;2023-07-22T11:34:33;1.50;;;1.10;;
1360;SDS011;674;45.552;-122.600;2023-07-22T11:37:01;1.13;;;0.83;;
1360;SDS011;674;45.552;-122.600;2023-07-22T11:39:32;1.50;;;1.10;;
1360;SDS011;674;45.552;-122.600;2023-07-22T11:42:02;2.10;;;1.00;;
1360;SDS011;674;45.552;-122.600;2023-07-22T11:44:32;2.03;;;1.03;;
1360;SDS011;674;45.552;-122.600;2023-07-22T11:47:04;1.50;;;1.03;;
1360;SDS011;674;45.552;-122.600;2023-07-22T11:49:37;1.83;;;1.10;;
1360;SDS011;674;45.552;-122.600;2023-07-22T11:52:10;1.30;;;1.00;;
1360;SDS011;674;45.552;-122.600;2023-07-22T11:54:42;1.40;;;1.23;;
1360;SDS011;674;45.552;-122.600;2023-07-22T11:57:16;1.80;;;1.10;;
1360;SDS011;674;45.552;-122.600;2023-07-22T11:59:49;1.40;;;1.13;;
1360;SDS011;674;45.552;-122.600;2023-07-22T12:02:23;1.43;;;0.90;;
1360;SDS011;674;45.552;-122.600;2023-07-22T12:05:00;1.30;;;1.03;;
1360;SDS011;674;45.552;-122.600;2023-07-22T12:07:38;1.30;;;1.00;;
1360;SDS011;674;45.552;-122.600;2023-07-22T12:10:07;1.73;;;1.23;;
1360;SDS011;674;45.552;-122.600;2023-07-22T12:12:44;3.10;;;1.40;;
1360;SDS011;674;45.552;-122.600;2023-07-22T12:17:53;2.20;;;1.50;;
1360;SDS011;674;45.552;-122.600;2023-07-22T12:20:27;2.30;;;1.30;;
1360;SDS011;674;45.552;-122.600;2023-07-22T12:22:58;2.93;;;1.10;;
1360;SDS011;674;45.552;-122.600;2023-07-22T12:25:27;2.23;;;1.43;;
1360;SDS011;674;45.552;-122.600;2023-07-22T12:27:56;1.80;;;1.30;;
1360;SDS011;674;45.552;-122.600;2023-07-22T12:30:25;1.40;;;1.10;;
1360;SDS011;674;45.552;-122.600;2023-07-22T12:32:55;1.87;;;1.13;;
1360;SDS011;674;45.552;-122.600;2023-07-22T12:35:24;1.63;;;1.40;;
1360;SDS011;674;45.552;-122.600;2023-07-22T12:37:52;1.50;;;1.13;;
1360;SDS011;674;45.552;-122.600;2023-07-22T12:40:21;1.53;;;1.30;;
1360;SDS011;674;45.552;-122.600;2023-07-22T12:42:49;1.60;;;1.40;;
1360;SDS011;674;45.552;-122.600;2023-07-22T12:45:18;2.23;;;1.40;;
1360;SDS011;674;45.552;-122.600;2023-07-22T12:47:46;1.77;;;1.13;;
1360;SDS011;674;45.552;-122.600;2023-07-22T12:50:16;2.13;;;1.63;;
1360;SDS011;674;45.552;-122.600;2023-07-22T12:52:44;1.93;;;1.53;;
1360;SDS011;674;45.552;-122.600;2023-07-22T12:55:13;1.60;;;1.50;;
1360;SDS011;674;45.552;-122.600;2023-07-22T12:57:42;1.60;;;1.30;;
1360;SDS011;674;45.552;-122.600;2023-07-22T13:00:10;2.20;;;1.73;;
1360;SDS011;674;45.552;-122.600;2023-07-22T13:02:39;2.43;;;1.70;;
1360;SDS011;674;45.552;-122.600;2023-07-22T13:05:08;2.83;;;1.73;;
1360;SDS011;674;45.552;-122.600;2023-07-22T13:07:36;1.50;;;1.40;;
1360;SDS011;674;45.552;-122.600;2023-07-22T13:10:05;2.50;;;1.80;;
1360;SDS011;674;45.552;-122.600;2023-07-22T13:12:38;2.57;;;1.90;;
1360;SDS011;674;45.552;-122.600;2023-07-22T13:15:06;2.73;;;1.97;;
1360;SDS011;674;45.552;-122.600;2023-07-22T13:17:35;2.33;;;2.07;;
1360;SDS011;674;45.552;-122.600;2023-07-22T13:20:04;2.60;;;1.80;;
1360;SDS011;674;45.552;-122.600;2023-07-22T13:22:38;1.90;;;1.60;;
1360;SDS011;674;45.552;-122.600;2023-07-22T13:25:07;2.30;;;1.87;;
1360;SDS011;674;45.552;-122.600;2023-07-22T13:27:39;1.80;;;1.50;;
1360;SDS011;674;45.552;-122.600;2023-07-22T13:30:08;2.00;;;1.80;;
1360;SDS011;674;45.552;-122.600;2023-07-22T13:32:37;2.33;;;1.90;;
1360;SDS011;674;45.552;-122.600;2023-07-22T13:35:06;1.97;;;1.77;;
1360;SDS011;674;45.552;-122.600;2023-07-22T13:37:36;2.20;;;1.70;;
1360;SDS011;674;45.552;-122.600;2023-07-22T13:40:05;3.60;;;2.50;;
1360;SDS011;674;45.552;-122.600;2023-07-22T13:42:37;2.03;;;1.43;;
1360;SDS011;674;45.552;-122.600;2023-07-22T13:45:07;3.60;;;2.30;;
1360;SDS011;674;45.552;-122.600;2023-07-22T13:47:35;2.53;;;2.13;;
1360;SDS011;674;45.552;-122.600;2023-07-22T13:50:04;3.13;;;2.80;;
1360;SDS011;674;45.552;-122.600;2023-07-22T13:52:33;3.20;;;2.90;;
1360;SDS011;674;45.552;-122.600;2023-07-22T13:55:02;2.77;;;2.57;;
1360;SDS011;674;45.552;-122.600;2023-07-22T13:57:30;3.60;;;2.70;;
1360;SDS011;674;45.552;-122.600;2023-07-22T13:59:59;3.07;;;2.77;;
1360;SDS011;674;45.552;-122.600;2023-07-22T14:02:27;3.10;;;2.80;;
1360;SDS011;674;45.552;-122.600;2023-07-22T14:04:56;3.83;;;2.60;;
1360;SDS011;674;45.552;-122.600;2023-07-22T14:07:24;2.60;;;2.40;;
1360;SDS011;674;45.552;-122.600;2023-07-22T14:09:53;4.80;;;3.30;;
1360;SDS011;674;45.552;-122.600;2023-07-22T14:12:22;3.07;;;2.77;;
1360;SDS011;674;45.552;-122.600;2023-07-22T14:14:51;3.90;;;3.50;;
1360;SDS011;674;45.552;-122.600;2023-07-22T14:17:19;4.07;;;2.73;;
1360;SDS011;674;45.552;-122.600;2023-07-22T14:19:48;3.73;;;3.30;;
1360;SDS011;674;45.552;-122.600;2023-07-22T14:22:17;3.07;;;2.77;;
1360;SDS011;674;45.552;-122.600;2023-07-22T14:24:45;3.20;;;3.00;;
1360;SDS011;674;45.552;-122.600;2023-07-22T14:27:14;3.47;;;3.17;;
1360;SDS011;674;45.552;-122.600;2023-07-22T14:29:42;4.23;;;3.83;;
1360;SDS011;674;45.552;-122.600;2023-07-22T14:32:11;3.13;;;2.83;;
1360;SDS011;674;45.552;-122.600;2023-07-22T14:34:40;3.80;;;3.37;;
1360;SDS011;674;45.552;-122.600;2023-07-22T14:37:08;3.60;;;2.67;;
1360;SDS011;674;45.552;-122.600;2023-07-22T14:39:37;4.63;;;2.70;;
1360;SDS011;674;45.552;-122.600;2023-07-22T14:42:05;2.90;;;2.70;;
1360;SDS011;674;45.552;-122.600;2023-07-22T14:44:34;3.60;;;3.30;;
1360;SDS011;674;45.552;-122.600;2023-07-22T14:47:03;3.97;;;3.60;;
1360;SDS011;674;45.552;-122.600;2023-07-22T14:49:33;4.30;;;3.33;;
1360;SDS011;674;45.552;-122.600;2023-07-22T14:52:01;3.40;;;3.10;;
1360;SDS011;674;45.552;-122.600;2023-07-22T14:54:30;3.13;;;2.83;;
1360;SDS011;674;45.552;-122.600;2023-07-22T14:56:59;3.77;;;2.90;;
1360;SDS011;674;45.552;-122.600;2023-07-22T14:59:27;3.40;;;3.10;;
1360;SDS011;674;45.552;-122.600;2023-07-22T15:01:56;3.50;;;3.10;;
1360;SDS011;674;45.552;-122.600;2023-07-22T15:04:25;2.80;;;2.50;;
1360;SDS011;674;45.552;-122.600;2023-07-22T15:06:54;3.30;;;3.00;;
1360;SDS011;674;45.552;-122.600;2023-07-22T15:09:22;3.70;;;2.70;;
1360;SDS011;674;45.552;-122.600;2023-07-22T15:11:50;2.90;;;2.50;;
1360;SDS011;674;45.552;-122.600;2023-07-22T15:14:20;3.50;;;2.80;;
1360;SDS011;674;45.552;-122.600;2023-07-22T15:16:54;2.23;;;2.03;;